Pagina principale
METAR-TAF:

METAR-TAF

Aeroporti :

Base aerea Thule

Thule, Groenlandia

latitudine: 76-32N, longitudine: 068-42W, altezza: 77 m

Osservazione

Il bollettino è stato emesso 18 minuti fa, alle 21:56 UTC
Vento 18 kt da sud/sud-est
Temperature 4°C
Umidità 70%
Pressione 998 hPa
Visibilità 10 km o più
Cielo coperto ad un'altezza di 3900 ft

METAR: BGTL 172156Z AUTO 15018KT 9999 OVC039 04/M01 A2948 RMK AO2 PK WND 15027/44 SLP968 T00381012 TSNO $

Ora: 19:14 (22:14 UTC)


TAF: mancante

Osservazioni e previsioni meteorologiche di più di 4000 aeroporti (messaggi METAR e TAF).

Le stazioni disponibili sono rappresentate dai dischi gialli e rossi sulla carta.

Puntare il mouse per vedere il nome della stazione.

Clicca sopra per visualizzare le osservazioni e previsioni meteorologiche.

Per cambiare la mappa : fare clic sui pulsanti verdi con una croce nera per ingrandire, il pulsante verde con un trattino per diminuire, o sulla freccia verde per le mappe adiacenti.


METAR-TAF: